Time;durP1;ratioP1;P1;durP2;ratioP2;P2;SDS_P1;SDS_P2;PMS_P1;PMS_P2;Temp;Humidity;BMP_temperature;BMP_pressure;BME280_temperature;BME280_humidity;BME280_pressure;Samples;Min_cycle;Max_cycle;Signal;HPM_P1;HPM_P2
2023/12/13 05:02:34;;;;;;;6.40;5.72;;;5.90;99.90;;;;;;4962637;23;20499;-74
2023/12/13 05:05:01;;;;;;;15.25;5.93;;;5.90;99.90;;;;;;4950509;29;20229;-74
2023/12/13 05:07:28;;;;;;;7.82;4.40;;;6.00;99.90;;;;;;4949394;29;20590;-74
2023/12/13 05:09:55;;;;;;;6.30;5.40;;;5.90;99.90;;;;;;4950867;29;20319;-74
2023/12/13 05:12:22;;;;;;;10.77;5.93;;;5.90;99.90;;;;;;4947626;29;20804;-74
2023/12/13 05:14:49;;;;;;;6.70;5.07;;;5.90;99.90;;;;;;4950386;29;20243;-75
2023/12/13 05:17:16;;;;;;;8.98;5.38;;;6.00;99.90;;;;;;4948897;28;20230;-74
2023/12/13 05:19:44;;;;;;;9.80;6.05;;;5.90;99.90;;;;;;4951824;28;20219;-74
2023/12/13 05:22:10;;;;;;;9.95;6.85;;;6.00;99.90;;;;;;4946025;28;20262;-74
2023/12/13 05:24:37;;;;;;;7.68;5.15;;;6.00;99.90;;;;;;4952390;29;20207;-74
2023/12/13 05:27:05;;;;;;;10.95;6.72;;;5.90;99.90;;;;;;4948239;28;20215;-75
2023/12/13 05:29:31;;;;;;;12.82;7.07;;;5.90;99.90;;;;;;4948403;28;20248;-74
2023/12/13 05:31:58;;;;;;;7.55;5.90;;;6.00;99.90;;;;;;4944232;28;20694;-75
2023/12/13 05:34:25;;;;;;;9.13;6.32;;;6.00;99.90;;;;;;4948607;28;20208;-74
2023/12/13 05:36:53;;;;;;;7.82;5.65;;;6.00;99.90;;;;;;4951289;28;20220;-73
2023/12/13 05:39:19;;;;;;;7.72;5.80;;;5.90;99.90;;;;;;4951375;28;20212;-75
2023/12/13 05:41:46;;;;;;;9.18;6.05;;;5.90;99.90;;;;;;4950104;28;20253;-75
2023/12/13 05:44:13;;;;;;;9.80;5.65;;;5.90;99.90;;;;;;4951499;28;20212;-75
2023/12/13 05:46:39;;;;;;;8.93;7.40;;;5.90;99.90;;;;;;4951957;28;20244;-75
2023/12/13 05:49:06;;;;;;;7.78;5.70;;;5.90;99.90;;;;;;4950437;28;20217;-75
2023/12/13 05:51:33;;;;;;;13.35;6.47;;;5.90;99.90;;;;;;4949945;28;20241;-76
2023/12/13 05:54:01;;;;;;;10.73;6.35;;;5.90;99.90;;;;;;4951340;28;20218;-76
2023/12/13 05:56:28;;;;;;;10.70;7.38;;;5.90;99.90;;;;;;4950853;28;20298;-76
2023/12/13 05:58:55;;;;;;;11.35;6.85;;;6.00;99.90;;;;;;4948394;28;20631;-76
2023/12/13 06:01:22;;;;;;;8.73;5.95;;;6.00;99.90;;;;;;4948609;28;20740;-75
2023/12/13 06:03:48;;;;;;;7.53;6.07;;;5.90;99.90;;;;;;4949506;28;20216;-75
2023/12/13 06:06:15;;;;;;;15.38;5.97;;;5.90;99.90;;;;;;4950980;28;20220;-75
2023/12/13 06:08:42;;;;;;;8.43;7.15;;;5.90;99.90;;;;;;4950224;28;20214;-75
2023/12/13 06:11:11;;;;;;;11.77;7.47;;;5.90;99.90;;;;;;4946515;28;20260;-76
2023/12/13 06:13:38;;;;;;;15.48;5.63;;;5.90;99.90;;;;;;4944570;28;20208;-75
2023/12/13 06:16:07;;;;;;;11.27;5.45;;;5.90;99.90;;;;;;4951090;28;20633;-76
2023/12/13 06:18:33;;;;;;;8.20;6.57;;;5.90;99.90;;;;;;4949920;28;20220;-75
2023/12/13 06:21:00;;;;;;;7.32;6.05;;;5.90;99.90;;;;;;4948304;28;20223;-76
2023/12/13 06:23:27;;;;;;;7.75;5.38;;;5.90;99.90;;;;;;4949491;28;20207;-75
2023/12/13 06:25:54;;;;;;;10.75;5.15;;;5.90;99.90;;;;;;4951261;28;20223;-75
2023/12/13 06:28:22;;;;;;;11.50;6.35;;;5.90;99.90;;;;;;4951018;28;20212;-75
2023/12/13 06:30:49;;;;;;;7.75;6.15;;;5.90;99.90;;;;;;4951200;28;20287;-75
2023/12/13 06:33:18;;;;;;;10.20;6.45;;;5.90;99.90;;;;;;4949324;28;20218;-76
2023/12/13 06:35:45;;;;;;;7.40;5.88;;;5.90;99.90;;;;;;4949630;28;20300;-75
2023/12/13 06:38:12;;;;;;;5.30;3.95;;;5.90;99.90;;;;;;4951265;28;20291;-75
2023/12/13 06:40:39;;;;;;;15.07;5.80;;;5.90;99.90;;;;;;4950076;28;20317;-76
2023/12/13 06:43:06;;;;;;;9.70;5.28;;;5.90;99.90;;;;;;4950713;28;20227;-74
2023/12/13 06:45:35;;;;;;;6.50;4.47;;;5.90;99.90;;;;;;4950996;28;20282;-75
2023/12/13 06:48:02;;;;;;;5.80;5.10;;;5.90;99.90;;;;;;4951252;28;20218;-76
2023/12/13 06:50:29;;;;;;;6.95;4.95;;;5.80;99.90;;;;;;4950552;28;20577;-75
2023/12/13 06:52:56;;;;;;;5.65;4.85;;;5.90;99.90;;;;;;4950562;28;20207;-75
2023/12/13 06:55:22;;;;;;;9.00;5.45;;;5.90;99.90;;;;;;4950550;28;20231;-74
2023/12/13 06:57:50;;;;;;;7.57;5.65;;;5.90;99.90;;;;;;4951166;28;20208;-74
2023/12/13 07:00:19;;;;;;;6.47;5.50;;;5.90;99.90;;;;;;4949112;28;20342;-74
2023/12/13 07:02:47;;;;;;;8.85;5.35;;;5.90;99.90;;;;;;4950400;28;20212;-75
2023/12/13 07:05:14;;;;;;;7.00;5.95;;;5.90;99.90;;;;;;4950844;28;20219;-74
2023/12/13 07:07:42;;;;;;;4.70;4.10;;;5.90;99.90;;;;;;4951282;28;20213;-74
2023/12/13 07:10:09;;;;;;;7.90;5.32;;;5.90;99.90;;;;;;4950795;28;20232;-73
2023/12/13 07:12:37;;;;;;;6.00;4.30;;;5.90;99.90;;;;;;4950387;28;20215;-75
2023/12/13 07:15:06;;;;;;;8.05;5.07;;;5.90;99.90;;;;;;4954020;28;20212;-75
2023/12/13 07:17:33;;;;;;;8.13;6.30;;;5.90;99.90;;;;;;4954817;28;20318;-74
2023/12/13 07:20:01;;;;;;;5.13;4.07;;;5.90;99.90;;;;;;4952950;28;20218;-74
2023/12/13 07:22:27;;;;;;;5.60;5.07;;;5.90;99.90;;;;;;4953558;28;20234;-74
2023/12/13 07:24:54;;;;;;;7.20;4.90;;;5.90;99.90;;;;;;4951661;28;20212;-74
2023/12/13 07:27:21;;;;;;;8.80;5.32;;;5.90;99.90;;;;;;4953572;28;20211;-74
2023/12/13 07:29:47;;;;;;;9.82;6.30;;;5.90;99.90;;;;;;4949381;28;20212;-72
2023/12/13 07:32:14;;;;;;;7.22;4.80;;;5.90;99.90;;;;;;4952355;28;21666;-73
2023/12/13 07:34:44;;;;;;;7.82;5.60;;;5.90;99.90;;;;;;4948810;28;20211;-73
2023/12/13 07:37:12;;;;;;;8.00;4.53;;;5.90;99.90;;;;;;4954020;28;20214;-73
2023/12/13 07:39:39;;;;;;;6.15;5.13;;;5.90;99.90;;;;;;4954496;28;20215;-73
2023/12/13 07:42:06;;;;;;;7.35;5.45;;;5.90;99.90;;;;;;4950938;28;20248;-74
2023/12/13 07:44:33;;;;;;;6.85;4.55;;;5.90;99.90;;;;;;4951649;28;20226;-73
2023/12/13 07:46:59;;;;;;;4.25;3.78;;;5.90;99.90;;;;;;4953290;28;20207;-73
2023/12/13 07:49:26;;;;;;;7.10;4.75;;;5.90;99.90;;;;;;4954144;28;20219;-75
2023/12/13 07:51:54;;;;;;;7.68;3.90;;;5.90;99.90;;;;;;4954233;28;20262;-74
2023/12/13 07:54:22;;;;;;;6.78;5.47;;;5.90;99.90;;;;;;4951254;28;20665;-73
2023/12/13 07:56:50;;;;;;;7.18;4.72;;;5.80;99.90;;;;;;4954167;28;20215;-74
2023/12/13 07:59:17;;;;;;;7.57;3.88;;;5.80;99.90;;;;;;4954595;28;20307;-73
2023/12/13 08:01:44;;;;;;;4.43;3.30;;;5.80;99.90;;;;;;4950181;28;20239;-73
2023/12/13 08:04:10;;;;;;;5.82;4.50;;;5.80;99.90;;;;;;4953517;28;20219;-74
2023/12/13 08:06:37;;;;;;;5.18;4.78;;;5.80;99.90;;;;;;4953883;28;20212;-73
2023/12/13 08:09:09;;;;;;;5.35;4.85;;;5.80;99.90;;;;;;4952628;28;20211;-75
2023/12/13 08:11:37;;;;;;;4.78;4.35;;;5.80;99.90;;;;;;4948556;28;20599;-74
2023/12/13 08:14:04;;;;;;;5.30;3.70;;;5.80;99.90;;;;;;4950748;28;20635;-74
2023/12/13 08:16:30;;;;;;;5.10;3.20;;;5.80;99.90;;;;;;4946047;28;20252;-68
2023/12/13 08:18:57;;;;;;;6.72;3.90;;;5.80;99.90;;;;;;4955293;28;20227;-73
2023/12/13 08:21:24;;;;;;;6.55;4.85;;;5.80;99.90;;;;;;4946293;28;20239;-73
2023/12/13 08:23:51;;;;;;;6.68;5.97;;;5.80;99.90;;;;;;4953103;28;20607;-73
2023/12/13 08:26:18;;;;;;;5.05;4.55;;;5.90;99.90;;;;;;4952055;28;20216;-74
2023/12/13 08:28:46;;;;;;;5.75;3.80;;;5.80;99.90;;;;;;4941323;28;20235;-73
2023/12/13 08:31:13;;;;;;;6.53;4.63;;;5.80;99.90;;;;;;4950446;28;20240;-73
2023/12/13 08:33:41;;;;;;;3.78;3.47;;;5.80;99.90;;;;;;4953072;28;20579;-74
2023/12/13 08:36:10;;;;;;;8.27;4.45;;;5.80;99.90;;;;;;4953010;28;20216;-73
2023/12/13 08:38:37;;;;;;;4.78;3.67;;;5.80;99.90;;;;;;4947547;28;20211;-74
2023/12/13 08:41:06;;;;;;;12.00;5.85;;;5.80;99.90;;;;;;4949643;28;20706;-73
2023/12/13 08:43:33;;;;;;;6.70;5.38;;;5.80;99.90;;;;;;4947698;28;20671;-74
2023/12/13 08:46:01;;;;;;;4.40;4.00;;;5.80;99.90;;;;;;4951364;28;20324;-74
2023/12/13 08:48:28;;;;;;;4.55;4.15;;;5.80;99.90;;;;;;4952159;28;20226;-73
2023/12/13 08:50:55;;;;;;;5.57;3.67;;;5.80;99.90;;;;;;4951792;28;20323;-74
2023/12/13 08:53:22;;;;;;;5.18;4.18;;;5.80;99.90;;;;;;4950965;28;20233;-73
2023/12/13 08:55:48;;;;;;;5.50;4.15;;;5.80;99.90;;;;;;4949385;28;20208;-74
2023/12/13 08:58:15;;;;;;;4.13;3.47;;;5.80;99.90;;;;;;4950747;28;20231;-73
2023/12/13 09:00:42;;;;;;;5.22;3.80;;;5.80;99.90;;;;;;4950902;28;20656;-75
2023/12/13 09:03:10;;;;;;;4.55;4.10;;;5.80;99.90;;;;;;4955213;28;20217;-74
2023/12/13 09:05:37;;;;;;;5.85;4.75;;;5.80;99.90;;;;;;4947168;28;20211;-74
2023/12/13 09:08:04;;;;;;;4.07;3.67;;;5.80;99.90;;;;;;4952878;28;20213;-74
2023/12/13 09:10:34;;;;;;;6.05;4.53;;;5.80;99.90;;;;;;4947189;28;20226;-73
2023/12/13 09:13:02;;;;;;;6.53;4.22;;;5.80;99.90;;;;;;4950350;28;20211;-74
2023/12/13 09:15:29;;;;;;;6.82;4.32;;;5.80;99.90;;;;;;4951525;28;20312;-74
2023/12/13 09:17:56;;;;;;;3.05;2.78;;;5.80;99.90;;;;;;4954296;28;20776;-73
2023/12/13 09:20:24;;;;;;;3.60;3.30;;;5.80;99.90;;;;;;4952703;28;20212;-73
2023/12/13 09:22:50;;;;;;;4.78;4.10;;;5.80;99.90;;;;;;4951072;28;20205;-74
2023/12/13 09:25:17;;;;;;;6.18;4.00;;;5.80;99.90;;;;;;4955894;28;20215;-73
2023/12/13 09:27:44;;;;;;;4.68;4.28;;;5.80;99.90;;;;;;4956860;29;20419;-73
2023/12/13 09:30:13;;;;;;;5.60;4.18;;;5.80;99.90;;;;;;4951653;28;20216;-73
2023/12/13 09:32:40;;;;;;;4.90;4.22;;;5.70;99.90;;;;;;4950608;28;20315;-73
2023/12/13 09:35:07;;;;;;;7.57;3.55;;;5.70;99.90;;;;;;4950899;28;20654;-73
2023/12/13 09:37:35;;;;;;;4.53;4.13;;;5.70;99.90;;;;;;4951959;28;20212;-73
2023/12/13 09:40:03;;;;;;;3.38;3.08;;;5.70;99.90;;;;;;4953723;28;20678;-72
2023/12/13 09:42:30;;;;;;;3.10;2.90;;;5.70;99.90;;;;;;4950311;28;20298;-72
2023/12/13 09:44:59;;;;;;;6.90;4.35;;;5.70;99.90;;;;;;4951906;28;20212;-72
2023/12/13 09:47:27;;;;;;;4.80;4.50;;;5.70;99.90;;;;;;4953588;28;20303;-73
2023/12/13 09:49:54;;;;;;;3.75;2.90;;;5.70;99.90;;;;;;4951285;28;20314;-73
2023/12/13 09:52:21;;;;;;;3.65;3.35;;;5.70;99.90;;;;;;4953172;28;20233;-73
2023/12/13 09:54:51;;;;;;;8.18;3.40;;;5.70;99.90;;;;;;4951896;28;20223;-73
2023/12/13 09:57:17;;;;;;;4.13;3.78;;;5.70;99.90;;;;;;4949844;28;20219;-72
2023/12/13 09:59:45;;;;;;;7.18;3.60;;;5.70;99.90;;;;;;4952712;28;20211;-73
2023/12/13 10:02:14;;;;;;;4.63;4.22;;;5.70;99.90;;;;;;4949376;28;20227;-73
2023/12/13 10:04:41;;;;;;;3.20;3.00;;;5.70;99.90;;;;;;4951608;28;20298;-73
2023/12/13 10:07:08;;;;;;;5.25;4.10;;;5.70;99.90;;;;;;4947947;28;20214;-73
2023/12/13 10:09:35;;;;;;;3.83;3.53;;;5.70;99.90;;;;;;4953846;28;20211;-73
2023/12/13 10:12:06;;;;;;;7.03;4.15;;;5.70;99.90;;;;;;4953077;28;20230;-74
2023/12/13 10:14:35;;;;;;;3.88;3.45;;;5.70;99.90;;;;;;4951996;28;20560;-73
2023/12/13 10:17:02;;;;;;;5.03;4.25;;;5.70;99.90;;;;;;4951767;28;20208;-73
2023/12/13 10:19:29;;;;;;;4.35;3.92;;;5.70;99.90;;;;;;4951033;28;20764;-73
2023/12/13 10:21:55;;;;;;;6.18;4.30;;;5.70;99.90;;;;;;4949594;28;20218;-72
2023/12/13 10:24:23;;;;;;;6.45;4.35;;;5.70;99.90;;;;;;4948174;28;20229;-72
2023/12/13 10:26:50;;;;;;;3.65;3.35;;;5.70;99.90;;;;;;4951464;28;20212;-73
2023/12/13 10:29:21;;;;;;;4.57;4.10;;;5.70;99.90;;;;;;4950425;28;20691;-73
2023/12/13 10:31:47;;;;;;;3.20;2.90;;;5.70;99.90;;;;;;4948221;28;20773;-73
2023/12/13 10:34:15;;;;;;;4.75;3.60;;;5.70;99.90;;;;;;4950398;28;20239;-74
2023/12/13 10:36:42;;;;;;;3.42;3.13;;;5.60;99.90;;;;;;4948357;28;20209;-73
2023/12/13 10:39:11;;;;;;;4.97;2.83;;;5.70;99.90;;;;;;4949001;28;20207;-73
2023/12/13 10:41:39;;;;;;;3.38;3.10;;;5.60;99.90;;;;;;4951147;28;20235;-73
2023/12/13 10:44:07;;;;;;;4.75;3.90;;;5.60;99.90;;;;;;4950463;28;20213;-73
2023/12/13 10:46:36;;;;;;;4.18;3.78;;;5.60;99.90;;;;;;4950178;28;20719;-73
2023/12/13 10:49:04;;;;;;;6.10;3.80;;;5.70;99.90;;;;;;4957401;28;20212;-72
2023/12/13 10:51:33;;;;;;;3.35;3.15;;;5.70;99.90;;;;;;4952908;28;20705;-73
2023/12/13 10:54:00;;;;;;;7.32;4.20;;;5.70;99.90;;;;;;4954226;28;20215;-72
2023/12/13 10:56:27;;;;;;;3.42;3.20;;;5.70;99.90;;;;;;4954131;28;20218;-72
2023/12/13 10:58:54;;;;;;;4.57;3.88;;;5.70;99.90;;;;;;4949965;28;20237;-73
2023/12/13 11:01:22;;;;;;;2.88;2.67;;;5.60;99.90;;;;;;4947297;28;20265;-72
2023/12/13 11:03:54;;;;;;;5.28;3.53;;;5.70;99.90;;;;;;4951536;28;20224;-72
2023/12/13 11:06:23;;;;;;;3.80;3.50;;;5.70;99.90;;;;;;4952474;28;20675;-73
2023/12/13 11:08:50;;;;;;;7.57;4.25;;;5.60;99.90;;;;;;4955062;29;20219;-73
2023/12/13 11:11:20;;;;;;;5.20;3.35;;;5.70;99.90;;;;;;4954462;28;20707;-73
2023/12/13 11:13:48;;;;;;;4.10;3.17;;;5.70;99.90;;;;;;4954068;28;20219;-72
2023/12/13 11:16:16;;;;;;;7.53;5.82;;;5.70;99.90;;;;;;4954872;28;20215;-72
2023/12/13 11:18:45;;;;;;;3.78;3.30;;;5.70;99.90;;;;;;4943153;28;20212;-74
2023/12/13 11:21:22;;;;;;;3.53;2.97;;;5.60;99.90;;;;;;4951461;28;20322;-74
2023/12/13 11:23:49;;;;;;;4.07;3.53;;;5.70;99.90;;;;;;4950340;28;20211;-73
2023/12/13 11:26:16;;;;;;;4.75;4.22;;;5.70;99.90;;;;;;4954840;28;20525;-74
2023/12/13 11:28:49;;;;;;;4.45;3.50;;;5.70;99.90;;;;;;4953633;28;20214;-73
2023/12/13 11:31:20;;;;;;;5.63;3.45;;;5.70;99.90;;;;;;4955319;28;20310;-73
2023/12/13 11:33:48;;;;;;;3.28;3.00;;;5.70;99.90;;;;;;4951663;28;20215;-73
2023/12/13 11:36:20;;;;;;;7.10;4.60;;;5.70;99.90;;;;;;4953950;28;20219;-73
2023/12/13 11:38:48;;;;;;;3.03;2.92;;;5.70;99.90;;;;;;4950514;28;20216;-72
2023/12/13 11:41:15;;;;;;;4.82;4.03;;;5.70;99.90;;;;;;4951098;28;20236;-73
2023/12/13 11:43:43;;;;;;;3.08;2.85;;;5.90;99.90;;;;;;4952595;28;20211;-74
2023/12/13 11:46:10;;;;;;;3.00;2.60;;;5.00;99.90;;;;;;4955138;28;20210;-73
2023/12/13 11:48:37;;;;;;;4.82;3.47;;;5.70;99.90;;;;;;4952962;28;20646;-74
2023/12/13 11:51:05;;;;;;;3.67;3.38;;;5.70;99.90;;;;;;4955475;28;20314;-75
2023/12/13 11:53:33;;;;;;;3.67;3.45;;;5.70;99.90;;;;;;4951409;28;20311;-74
2023/12/13 11:56:00;;;;;;;3.67;3.15;;;5.00;99.90;;;;;;4953534;28;20208;-74
2023/12/13 11:58:29;;;;;;;2.35;2.15;;;5.70;99.90;;;;;;4953797;28;20219;-75
2023/12/13 12:00:58;;;;;;;7.18;2.90;;;5.70;99.90;;;;;;4951130;28;20638;-75
2023/12/13 12:03:25;;;;;;;4.15;3.15;;;5.70;99.90;;;;;;4953009;28;20604;-71
2023/12/13 12:06:57;;;;;;;2.80;2.60;;;5.80;99.90;;;;;;5091340;27;20598;-72
2023/12/13 12:09:24;;;;;;;3.65;2.58;;;5.70;99.90;;;;;;5081288;28;20309;-71
2023/12/13 12:11:53;;;;;;;3.35;3.10;;;5.80;99.90;;;;;;5066991;28;20241;-74
2023/12/13 12:14:20;;;;;;;3.08;2.88;;;5.80;99.90;;;;;;5066812;28;20279;-73
2023/12/13 12:16:47;;;;;;;4.03;3.17;;;5.70;99.90;;;;;;5066986;28;20200;-73
2023/12/13 12:19:13;;;;;;;4.78;3.70;;;5.80;99.90;;;;;;5068473;28;20208;-73
2023/12/13 12:21:41;;;;;;;7.20;3.38;;;5.70;99.90;;;;;;5066809;28;20229;-73
2023/12/13 12:24:11;;;;;;;4.20;3.42;;;5.70;99.90;;;;;;5067878;28;20275;-73
2023/12/13 12:26:38;;;;;;;4.45;2.95;;;5.70;99.90;;;;;;5064287;28;20238;-73
2023/12/13 12:29:04;;;;;;;2.63;2.42;;;5.70;99.90;;;;;;5067942;28;20227;-72
2023/12/13 12:31:31;;;;;;;3.80;3.50;;;5.70;99.90;;;;;;5066761;28;20237;-73
2023/12/13 12:34:00;;;;;;;3.03;2.55;;;5.70;99.90;;;;;;5066840;28;20204;-73
2023/12/13 12:36:27;;;;;;;3.60;2.70;;;5.70;99.90;;;;;;5070206;28;20209;-73
2023/12/13 12:38:54;;;;;;;2.53;2.33;;;5.70;99.90;;;;;;5067086;28;20216;-72
2023/12/13 12:41:23;;;;;;;2.45;2.03;;;5.70;99.90;;;;;;5066093;28;20836;-73
2023/12/13 12:43:50;;;;;;;6.72;3.42;;;5.70;99.90;;;;;;5066604;28;20862;-73
2023/12/13 12:46:18;;;;;;;2.60;1.92;;;5.80;99.90;;;;;;5067643;28;20642;-73
2023/12/13 12:48:45;;;;;;;2.85;2.65;;;5.70;99.90;;;;;;5064997;28;20208;-73
2023/12/13 12:51:12;;;;;;;2.13;2.05;;;5.70;99.90;;;;;;5071464;28;20220;-73
2023/12/13 12:53:39;;;;;;;3.17;2.90;;;5.70;99.90;;;;;;5065891;28;20564;-74
2023/12/13 12:56:07;;;;;;;2.60;2.40;;;5.70;99.90;;;;;;5064674;28;20602;-73
2023/12/13 12:58:36;;;;;;;5.55;4.78;;;5.70;99.90;;;;;;5067055;28;20634;-73
2023/12/13 13:01:03;;;;;;;5.93;3.90;;;5.70;99.90;;;;;;5068749;28;20231;-73
2023/12/13 13:03:30;;;;;;;3.80;2.95;;;5.70;99.90;;;;;;5063927;28;20205;-73
2023/12/13 13:05:57;;;;;;;4.13;3.15;;;5.70;99.90;;;;;;5069759;28;20228;-73
2023/12/13 13:08:24;;;;;;;3.22;2.53;;;5.70;99.90;;;;;;5067114;28;20208;-73
2023/12/13 13:10:50;;;;;;;2.97;2.75;;;5.70;99.90;;;;;;5073206;28;20245;-73
2023/12/13 13:13:17;;;;;;;2.15;2.05;;;5.70;99.90;;;;;;5063099;28;20208;-73
2023/12/13 13:15:46;;;;;;;2.45;2.25;;;5.60;99.90;;;;;;5065773;28;20266;-73
2023/12/13 13:18:13;;;;;;;3.13;2.83;;;5.60;99.90;;;;;;5052837;28;20290;-73
2023/12/13 13:20:40;;;;;;;4.10;3.40;;;5.60;99.90;;;;;;5053998;28;20270;-73
2023/12/13 13:23:06;;;;;;;3.08;2.85;;;5.60;99.90;;;;;;5053925;28;20206;-72
2023/12/13 13:25:32;;;;;;;2.33;2.20;;;5.60;99.90;;;;;;5052738;28;20241;-72
2023/12/13 13:27:59;;;;;;;3.33;3.00;;;5.50;99.90;;;;;;5046035;28;20201;-71
2023/12/13 13:30:26;;;;;;;2.60;2.47;;;5.60;99.90;;;;;;5048949;28;20210;-72
2023/12/13 13:32:54;;;;;;;4.50;2.40;;;5.50;99.90;;;;;;5052386;28;20307;-72
2023/12/13 13:35:21;;;;;;;2.70;2.50;;;5.50;99.90;;;;;;5050587;28;20200;-72
2023/12/13 13:37:48;;;;;;;3.75;2.80;;;5.50;99.90;;;;;;5048623;28;20221;-72
2023/12/13 13:40:15;;;;;;;2.60;2.50;;;5.50;99.90;;;;;;5048808;28;20334;-73
2023/12/13 13:42:42;;;;;;;3.08;2.80;;;5.50;99.90;;;;;;5050182;28;20205;-72
2023/12/13 13:45:10;;;;;;;8.02;2.80;;;5.50;99.90;;;;;;5052165;28;20212;-72
2023/12/13 13:47:37;;;;;;;2.72;2.53;;;5.50;99.90;;;;;;5052142;28;20219;-72
2023/12/13 13:50:07;;;;;;;3.15;2.83;;;5.50;99.90;;;;;;5049374;28;20598;-72
2023/12/13 13:52:34;;;;;;;3.78;2.67;;;5.50;99.90;;;;;;5055847;28;20218;-72
2023/12/13 13:55:01;;;;;;;3.90;2.70;;;5.50;99.90;;;;;;5052045;28;20208;-72
2023/12/13 13:57:27;;;;;;;6.28;3.40;;;5.50;99.90;;;;;;5051269;28;20705;-72
2023/12/13 13:59:54;;;;;;;4.13;2.47;;;5.50;99.90;;;;;;5049124;28;20212;-73
2023/12/13 14:02:30;;;;;;;3.22;2.50;;;5.50;99.90;;;;;;5050136;28;20248;-71
2023/12/13 14:04:56;;;;;;;3.83;2.55;;;5.50;99.90;;;;;;5047948;28;20559;-71
2023/12/13 14:07:25;;;;;;;2.65;2.35;;;5.40;99.90;;;;;;5050797;28;20224;-71
2023/12/13 14:09:51;;;;;;;3.25;2.15;;;5.40;99.90;;;;;;5050002;28;20586;-71
2023/12/13 14:12:18;;;;;;;2.63;2.45;;;5.40;99.90;;;;;;5051231;28;20240;-72
2023/12/13 14:14:45;;;;;;;8.38;3.42;;;5.40;99.90;;;;;;5050780;28;20209;-73
2023/12/13 14:17:12;;;;;;;4.07;3.25;;;5.40;99.90;;;;;;5050615;28;20208;-73
2023/12/13 14:19:38;;;;;;;1.58;1.45;;;5.30;99.90;;;;;;5051442;28;20220;-73
2023/12/13 14:22:06;;;;;;;2.22;2.13;;;5.30;99.90;;;;;;5050539;28;20274;-72
2023/12/13 14:24:34;;;;;;;2.65;2.50;;;5.30;99.90;;;;;;5051460;28;20205;-72
2023/12/13 14:27:01;;;;;;;2.10;1.98;;;5.40;99.90;;;;;;5051146;28;20600;-72
2023/12/13 14:29:28;;;;;;;3.40;2.88;;;5.30;99.90;;;;;;5048816;28;20217;-72
2023/12/13 14:31:55;;;;;;;9.75;3.38;;;5.30;99.90;;;;;;5049061;28;20229;-72
2023/12/13 14:34:21;;;;;;;2.47;2.28;;;5.30;99.90;;;;;;5043895;28;20216;-74
2023/12/13 14:36:49;;;;;;;4.28;3.25;;;5.30;99.90;;;;;;5050546;28;20209;-72
2023/12/13 14:39:17;;;;;;;2.10;2.10;;;5.30;99.90;;;;;;5050491;28;20206;-72
2023/12/13 14:41:45;;;;;;;3.75;1.52;;;5.30;99.90;;;;;;5050372;28;20254;-72
2023/12/13 14:44:12;;;;;;;2.08;2.08;;;5.30;99.90;;;;;;5047636;28;20209;-73
2023/12/13 14:46:39;;;;;;;2.50;2.40;;;5.30;99.90;;;;;;5050704;28;20233;-72
2023/12/13 14:49:06;;;;;;;1.70;1.60;;;5.30;99.90;;;;;;5050054;28;20295;-73
2023/12/13 14:51:33;;;;;;;2.80;1.77;;;5.30;99.90;;;;;;5050227;28;20235;-73
2023/12/13 14:53:59;;;;;;;2.33;1.92;;;5.30;99.90;;;;;;5048690;28;20209;-73
2023/12/13 14:56:27;;;;;;;1.40;1.40;;;5.30;99.90;;;;;;5048243;28;20208;-74
2023/12/13 14:58:55;;;;;;;1.95;1.85;;;5.30;99.90;;;;;;5049734;28;20300;-74
2023/12/13 15:01:23;;;;;;;3.67;2.22;;;5.30;99.90;;;;;;5045706;28;20289;-74
2023/12/13 15:03:50;;;;;;;1.73;1.63;;;5.30;99.90;;;;;;5050361;28;20238;-72
2023/12/13 15:06:17;;;;;;;7.10;3.17;;;5.20;99.90;;;;;;5050293;28;20867;-73
2023/12/13 15:08:44;;;;;;;4.10;1.25;;;5.30;99.90;;;;;;5048665;28;20222;-72
2023/12/13 15:11:11;;;;;;;1.85;1.70;;;5.30;99.90;;;;;;5047460;28;20291;-71
2023/12/13 15:13:37;;;;;;;4.82;2.72;;;5.20;99.90;;;;;;5049851;28;20205;-71
2023/12/13 15:16:07;;;;;;;4.72;2.28;;;5.20;99.90;;;;;;5049049;28;20205;-71
2023/12/13 15:18:33;;;;;;;1.73;1.73;;;5.20;99.90;;;;;;5045631;28;20306;-71
2023/12/13 15:21:00;;;;;;;2.15;2.10;;;5.20;99.90;;;;;;5047159;28;20337;-71
2023/12/13 15:23:27;;;;;;;2.88;2.53;;;5.20;99.90;;;;;;5048983;28;20679;-71
2023/12/13 15:25:54;;;;;;;2.45;2.25;;;5.20;99.90;;;;;;5048248;28;20221;-71
2023/12/13 15:28:20;;;;;;;2.97;2.78;;;5.20;99.90;;;;;;5049952;28;20266;-71
2023/12/13 15:30:47;;;;;;;2.38;2.22;;;5.20;99.90;;;;;;5048749;28;20220;-71
2023/12/13 15:33:15;;;;;;;3.53;2.15;;;5.20;99.90;;;;;;5050353;28;20292;-71
2023/12/13 15:35:44;;;;;;;3.85;2.58;;;5.20;99.90;;;;;;5047980;28;20204;-71
2023/12/13 15:38:11;;;;;;;3.20;3.00;;;5.20;99.90;;;;;;5050279;28;20270;-71
2023/12/13 15:40:37;;;;;;;4.38;2.38;;;5.20;99.90;;;;;;5049219;28;20228;-70
2023/12/13 15:43:04;;;;;;;2.50;2.25;;;5.20;99.90;;;;;;5054489;28;20209;-70
2023/12/13 15:45:31;;;;;;;3.08;2.28;;;5.20;99.90;;;;;;5053557;28;20199;-70
2023/12/13 15:47:58;;;;;;;2.50;2.30;;;5.20;99.90;;;;;;5053176;28;20305;-72
2023/12/13 15:50:26;;;;;;;2.75;2.40;;;5.10;99.90;;;;;;5053969;28;20233;-72
2023/12/13 15:52:53;;;;;;;2.75;2.55;;;5.20;99.90;;;;;;5052707;28;20300;-72
2023/12/13 15:55:19;;;;;;;2.30;2.13;;;5.10;99.90;;;;;;5054117;28;20205;-73
2023/12/13 15:57:46;;;;;;;4.90;2.05;;;5.10;99.90;;;;;;5049815;28;20202;-72
2023/12/13 16:00:14;;;;;;;2.75;2.63;;;5.10;99.90;;;;;;5055264;28;20237;-73
2023/12/13 16:02:41;;;;;;;2.00;1.90;;;5.10;99.90;;;;;;5049850;28;20214;-73
2023/12/13 16:05:09;;;;;;;3.10;1.70;;;5.10;99.90;;;;;;5049079;28;20209;-72
2023/12/13 16:07:38;;;;;;;6.63;2.75;;;5.10;99.90;;;;;;5048736;28;20313;-73
2023/12/13 16:10:05;;;;;;;3.22;2.45;;;5.10;99.90;;;;;;5050014;28;20243;-73
2023/12/13 16:12:32;;;;;;;4.13;2.88;;;5.10;99.90;;;;;;5050214;28;20231;-72
2023/12/13 16:15:01;;;;;;;3.33;3.00;;;5.10;99.90;;;;;;5045221;28;20228;-72
2023/12/13 16:17:28;;;;;;;1.55;1.45;;;5.10;99.90;;;;;;5048922;28;20210;-73
2023/12/13 16:19:55;;;;;;;6.15;3.00;;;5.10;99.90;;;;;;5045044;28;20209;-73
2023/12/13 16:22:21;;;;;;;2.70;2.50;;;5.00;99.90;;;;;;5042998;28;20220;-73
2023/12/13 16:24:49;;;;;;;3.80;3.30;;;5.00;99.90;;;;;;5046001;28;20215;-74
2023/12/13 16:27:16;;;;;;;3.70;2.80;;;5.00;99.90;;;;;;5047579;28;20581;-74
2023/12/13 16:29:43;;;;;;;3.33;3.03;;;5.00;99.90;;;;;;5048084;28;20220;-74
2023/12/13 16:32:10;;;;;;;2.40;1.75;;;5.00;99.90;;;;;;5049340;28;20583;-74
2023/12/13 16:34:37;;;;;;;2.88;2.47;;;5.00;99.90;;;;;;5042664;28;20213;-74
2023/12/13 16:37:04;;;;;;;2.15;2.05;;;5.00;99.90;;;;;;5052527;28;20203;-74
2023/12/13 16:39:30;;;;;;;2.05;1.95;;;5.00;99.90;;;;;;5049089;28;20204;-74
2023/12/13 16:41:58;;;;;;;2.60;2.40;;;5.00;99.90;;;;;;5048930;28;20232;-75
2023/12/13 16:44:25;;;;;;;3.85;2.92;;;5.00;99.90;;;;;;5048178;28;20645;-74
2023/12/13 16:46:52;;;;;;;1.85;1.40;;;4.90;99.90;;;;;;5048357;28;20234;-74
2023/12/13 16:49:21;;;;;;;6.82;2.50;;;5.00;99.90;;;;;;5045935;28;20211;-74
2023/12/13 16:51:50;;;;;;;3.97;3.13;;;5.00;99.90;;;;;;5048867;28;20276;-74
2023/12/13 16:54:17;;;;;;;2.97;2.67;;;5.00;99.90;;;;;;5052738;28;20234;-73
2023/12/13 16:56:44;;;;;;;5.90;4.32;;;4.90;99.90;;;;;;5051038;28;20205;-74
2023/12/13 16:59:12;;;;;;;3.78;2.28;;;4.90;99.90;;;;;;5051597;28;20212;-74
2023/12/13 17:01:39;;;;;;;1.98;1.88;;;4.90;99.90;;;;;;5049785;28;20279;-74
2023/12/13 17:04:06;;;;;;;2.10;1.90;;;4.90;99.90;;;;;;5051450;28;20268;-74
2023/12/13 17:06:33;;;;;;;3.03;2.75;;;4.90;99.90;;;;;;5049470;28;20717;-75
2023/12/13 17:09:02;;;;;;;2.70;2.58;;;4.90;99.90;;;;;;5051934;28;20217;-73
2023/12/13 17:11:29;;;;;;;2.15;2.05;;;4.90;99.90;;;;;;5051670;28;20277;-73
2023/12/13 17:13:56;;;;;;;3.30;2.45;;;4.90;99.90;;;;;;5051790;28;20212;-73
2023/12/13 17:16:25;;;;;;;3.15;2.95;;;4.80;99.90;;;;;;5047274;28;20576;-74
2023/12/13 17:18:51;;;;;;;2.47;2.40;;;4.80;99.90;;;;;;5051729;28;20289;-73
2023/12/13 17:21:18;;;;;;;6.28;3.38;;;4.90;99.90;;;;;;5048737;28;20230;-74
2023/12/13 17:23:45;;;;;;;3.53;3.33;;;4.80;99.90;;;;;;5043503;28;20209;-73
2023/12/13 17:26:11;;;;;;;2.70;2.60;;;4.80;99.90;;;;;;5048589;28;20234;-74
2023/12/13 17:28:38;;;;;;;2.15;1.70;;;4.80;99.90;;;;;;5051108;28;20210;-74
2023/12/13 17:31:05;;;;;;;2.25;2.15;;;4.80;99.90;;;;;;5050974;28;20268;-74
2023/12/13 17:33:33;;;;;;;1.40;1.30;;;4.80;99.90;;;;;;5059925;28;20215;-74
2023/12/13 17:36:00;;;;;;;1.58;1.45;;;4.80;99.90;;;;;;5048505;28;20580;-73
2023/12/13 17:38:27;;;;;;;3.33;2.10;;;4.80;99.90;;;;;;5049987;28;20236;-74
2023/12/13 17:40:53;;;;;;;2.25;2.10;;;4.70;99.90;;;;;;5045068;28;20227;-73
2023/12/13 17:43:20;;;;;;;1.65;1.55;;;4.70;99.90;;;;;;5050812;28;20207;-73
2023/12/13 17:45:47;;;;;;;1.45;1.33;;;4.70;99.90;;;;;;5048644;28;20228;-73
2023/12/13 17:48:13;;;;;;;1.38;1.38;;;4.70;99.90;;;;;;5051687;28;20223;-73
2023/12/13 17:50:42;;;;;;;1.10;1.10;;;4.70;99.90;;;;;;5050721;28;20227;-73
2023/12/13 17:53:09;;;;;;;4.10;2.88;;;4.60;99.90;;;;;;5049221;28;20221;-74
2023/12/13 17:55:36;;;;;;;1.80;1.70;;;4.60;99.90;;;;;;5047897;28;20273;-73
2023/12/13 17:58:02;;;;;;;1.42;1.33;;;4.60;99.90;;;;;;5050343;28;20196;-73